Time;durP1;ratioP1;P1;durP2;ratioP2;P2;SDS_P1;SDS_P2;PMS_P1;PMS_P2;Temp;Humidity;BMP_temperature;BMP_pressure;BME280_temperature;BME280_humidity;BME280_pressure;Samples;Min_cycle;Max_cycle;Signal;HPM_P1;HPM_P2
2021/12/17 00:07:04;;;;;;;9.23;5.15;;;9.10;99.90;;;;;;6189520;23;20016;-91
2021/12/17 00:09:31;;;;;;;9.80;4.97;;;9.10;99.90;;;;;;6190055;23;20040;-91
2021/12/17 00:11:58;;;;;;;9.80;5.10;;;9.10;99.90;;;;;;6189607;23;20048;-91
2021/12/17 00:14:35;;;;;;;11.20;5.50;;;9.10;99.90;;;;;;6165375;23;20024;-91
2021/12/17 00:17:05;;;;;;;12.60;5.13;;;9.10;99.90;;;;;;6189960;23;20051;-91
2021/12/17 00:49:25;;;;;;;12.02;5.35;;;9.00;99.90;;;;;;6189363;23;20075;-91
2021/12/17 00:52:01;;;;;;;9.43;4.30;;;9.00;99.90;;;;;;6189559;23;20392;-91
2021/12/17 00:54:35;;;;;;;11.48;5.10;;;9.00;99.90;;;;;;6189898;23;20024;-92
2021/12/17 00:57:26;;;;;;;9.25;4.78;;;9.00;99.90;;;;;;6189893;23;20457;-91
2021/12/17 00:59:55;;;;;;;7.63;4.47;;;9.00;99.90;;;;;;6189938;23;20353;-91
2021/12/17 01:02:29;;;;;;;8.02;4.90;;;9.00;99.90;;;;;;6190099;23;20016;-91
2021/12/17 01:04:59;;;;;;;9.57;5.38;;;9.00;99.90;;;;;;6189580;23;20035;-91
2021/12/17 01:07:32;;;;;;;9.52;4.65;;;9.00;99.90;;;;;;6189310;23;20031;-91
2021/12/17 01:10:06;;;;;;;8.90;4.03;;;9.00;99.90;;;;;;6189947;23;20028;-91
2021/12/17 01:12:42;;;;;;;9.35;4.40;;;9.00;99.90;;;;;;6167252;23;20023;-91
2021/12/17 01:15:37;;;;;;;9.50;4.68;;;9.00;99.90;;;;;;6191914;23;20025;-91
2021/12/17 01:18:20;;;;;;;9.32;5.15;;;9.00;99.90;;;;;;6167347;23;20074;-90
2021/12/17 01:35:46;;;;;;;7.60;4.22;;;9.00;99.90;;;;;;6185668;23;20032;-91
2021/12/17 01:41:31;;;;;;;11.15;4.18;;;9.00;99.90;;;;;;6189199;23;20036;-91
2021/12/17 01:44:00;;;;;;;7.55;4.00;;;9.00;99.90;;;;;;6215891;23;20012;-91
2021/12/17 01:46:31;;;;;;;9.38;4.60;;;9.00;99.90;;;;;;6189381;23;20079;-91
2021/12/17 01:55:48;;;;;;;7.20;3.25;;;8.90;99.90;;;;;;6189657;23;20095;-91
2021/12/17 02:00:06;;;;;;;7.47;3.33;;;9.00;99.90;;;;;;6190769;23;20048;-91
2021/12/17 02:02:45;;;;;;;8.85;4.15;;;8.90;99.90;;;;;;6193073;23;20088;-91
2021/12/17 02:05:14;;;;;;;7.97;3.88;;;9.00;99.90;;;;;;6167297;23;20021;-92
2021/12/17 02:07:43;;;;;;;6.50;3.42;;;8.90;99.90;;;;;;6190966;23;20020;-90
2021/12/17 02:10:57;;;;;;;7.72;4.22;;;9.00;99.90;;;;;;6191014;23;20020;-92
2021/12/17 02:31:46;;;;;;;7.30;3.67;;;8.90;99.90;;;;;;6190584;23;20021;-91
2021/12/17 02:36:49;;;;;;;7.90;3.40;;;8.90;99.90;;;;;;6190892;23;20095;-91
2021/12/17 02:47:41;;;;;;;7.43;3.75;;;8.90;99.90;;;;;;6190788;23;20024;-91
2021/12/17 02:50:10;;;;;;;7.95;3.90;;;8.90;99.90;;;;;;6190523;23;20028;-91
2021/12/17 02:52:40;;;;;;;5.80;2.88;;;8.90;99.90;;;;;;6191190;23;20016;-90
2021/12/17 02:55:08;;;;;;;7.95;2.75;;;8.90;99.90;;;;;;6216038;23;20016;-91
2021/12/17 02:57:35;;;;;;;9.95;4.05;;;8.90;99.90;;;;;;6165689;23;20338;-90
2021/12/17 03:00:06;;;;;;;9.57;3.35;;;8.90;99.90;;;;;;6190371;23;20020;-90
2021/12/17 03:02:37;;;;;;;8.55;3.33;;;8.90;99.90;;;;;;6190645;23;20079;-91
2021/12/17 03:05:06;;;;;;;6.88;3.20;;;8.90;99.90;;;;;;6190647;23;20381;-91
2021/12/17 03:07:39;;;;;;;8.10;4.00;;;8.90;99.90;;;;;;6165801;23;20026;-91
2021/12/17 03:10:10;;;;;;;10.18;4.20;;;8.90;99.90;;;;;;6191132;23;20322;-91
2021/12/17 03:12:51;;;;;;;8.40;3.45;;;8.90;99.90;;;;;;6190280;23;20024;-91
2021/12/17 03:15:34;;;;;;;5.97;3.08;;;8.90;99.90;;;;;;6190499;23;20053;-91
2021/12/17 03:23:32;;;;;;;7.95;3.50;;;8.90;99.90;;;;;;6191420;23;20330;-92
2021/12/17 03:26:07;;;;;;;6.63;3.42;;;8.90;99.90;;;;;;6190566;23;20020;-92
2021/12/17 03:28:35;;;;;;;8.18;3.60;;;8.90;99.90;;;;;;6190613;23;20021;-91
2021/12/17 03:31:03;;;;;;;6.90;3.80;;;8.90;99.90;;;;;;6190397;23;20388;-92
2021/12/17 03:33:35;;;;;;;5.95;3.25;;;8.90;99.90;;;;;;6190465;23;20413;-92
2021/12/17 03:36:03;;;;;;;9.52;4.15;;;8.90;99.90;;;;;;6190266;23;20456;-92
2021/12/17 03:38:30;;;;;;;7.85;2.80;;;8.90;99.90;;;;;;6190053;23;20024;-91
2021/12/17 03:41:12;;;;;;;5.53;3.35;;;8.90;99.90;;;;;;6190743;23;20016;-91
2021/12/17 03:43:48;;;;;;;8.15;2.92;;;8.90;99.90;;;;;;6190821;23;20051;-91
2021/12/17 03:46:18;;;;;;;8.45;3.35;;;8.90;99.90;;;;;;6190452;23;20017;-92
2021/12/17 03:48:47;;;;;;;9.98;3.47;;;8.90;99.90;;;;;;6189789;23;20095;-92
2021/12/17 03:51:16;;;;;;;6.70;3.22;;;8.90;99.90;;;;;;6189905;23;20021;-92
2021/12/17 03:53:53;;;;;;;6.63;2.88;;;8.90;99.90;;;;;;6190101;23;20414;-93
2021/12/17 03:56:21;;;;;;;9.52;4.03;;;8.90;99.90;;;;;;6165381;23;20029;-91
2021/12/17 03:58:50;;;;;;;8.15;3.30;;;8.80;99.90;;;;;;6189817;23;20025;-92
2021/12/17 04:01:19;;;;;;;6.95;3.17;;;8.90;99.90;;;;;;6190154;23;20027;-91
2021/12/17 04:03:47;;;;;;;9.88;3.53;;;8.90;99.90;;;;;;6215175;23;20013;-92
2021/12/17 04:06:23;;;;;;;6.65;3.65;;;8.90;99.90;;;;;;6167513;23;20031;-92
2021/12/17 04:09:09;;;;;;;8.07;4.55;;;8.90;99.90;;;;;;6215605;23;20039;-92
2021/12/17 04:11:47;;;;;;;11.18;4.95;;;8.90;99.90;;;;;;6190254;23;20070;-92
2021/12/17 04:14:33;;;;;;;10.80;3.75;;;8.80;99.90;;;;;;6215248;23;20032;-91
2021/12/17 04:17:03;;;;;;;28.85;7.85;;;8.80;99.90;;;;;;6190046;23;20016;-92
2021/12/17 04:19:30;;;;;;;10.25;4.85;;;8.80;99.90;;;;;;6190340;23;20025;-92
2021/12/17 04:21:57;;;;;;;15.20;6.10;;;8.80;99.90;;;;;;6189994;23;20020;-92
2021/12/17 04:24:26;;;;;;;9.85;5.32;;;8.90;99.90;;;;;;6190350;23;20103;-92
2021/12/17 04:26:53;;;;;;;13.10;5.30;;;8.90;99.90;;;;;;6189764;23;20025;-92
2021/12/17 04:29:24;;;;;;;9.23;5.60;;;8.90;99.90;;;;;;6190114;23;20396;-91
2021/12/17 04:31:55;;;;;;;10.90;5.72;;;8.80;99.90;;;;;;6190603;23;20020;-91
2021/12/17 04:34:26;;;;;;;11.02;6.07;;;8.80;99.90;;;;;;6190486;23;20456;-91
2021/12/17 04:36:56;;;;;;;9.15;5.13;;;8.80;99.90;;;;;;6190132;23;20445;-91
2021/12/17 04:39:35;;;;;;;8.98;5.10;;;8.80;99.90;;;;;;6190868;23;20071;-92
2021/12/17 04:42:11;;;;;;;10.68;5.05;;;8.80;99.90;;;;;;6190489;23;20321;-92
2021/12/17 04:44:43;;;;;;;10.45;5.80;;;8.80;99.90;;;;;;6190205;23;20020;-92
2021/12/17 04:58:04;;;;;;;10.23;4.38;;;8.80;99.90;;;;;;6189505;23;20479;-91
2021/12/17 05:00:32;;;;;;;9.13;4.88;;;8.80;99.90;;;;;;6190356;23;20333;-92
2021/12/17 05:03:15;;;;;;;6.05;2.83;;;8.80;99.90;;;;;;6190200;23;20366;-92
2021/12/17 05:05:45;;;;;;;7.63;4.25;;;8.80;99.90;;;;;;6165618;23;20016;-93
2021/12/17 05:08:22;;;;;;;6.78;3.40;;;8.80;99.90;;;;;;6189768;23;20023;-92
2021/12/17 15:30:00;;;;;;;2.20;1.33;;;9.10;99.90;;;;;;6253689;22;20038;-95
2021/12/17 15:37:08;;;;;;;1.80;1.13;;;9.10;99.90;;;;;;6166323;23;20017;-92
2021/12/17 16:56:03;;;;;;;5.63;2.08;;;9.00;99.90;;;;;;6233747;22;20324;-92
2021/12/17 17:02:48;;;;;;;7.53;2.35;;;8.90;99.90;;;;;;6244604;22;20055;-92
2021/12/17 17:05:33;;;;;;;4.35;1.77;;;8.90;99.90;;;;;;6246992;23;20099;-91
2021/12/17 17:09:01;;;;;;;;;;;;;;;;;;;;;
2021/12/17 17:16:29;;;;;;;2.90;1.55;;;8.90;99.90;;;;;;6207661;23;20099;-90
2021/12/17 17:23:07;;;;;;;3.70;2.10;;;8.90;99.90;;;;;;6157012;23;20036;-93
2021/12/17 17:26:13;;;;;;;3.22;1.67;;;8.90;99.90;;;;;;6159956;23;20512;-91
2021/12/17 17:30:03;;;;;;;;;;;;;;;;;;;;;
2021/12/17 17:37:08;;;;;;;4.68;2.63;;;8.90;99.90;;;;;;5938210;23;20018;-92
2021/12/17 17:39:49;;;;;;;;;;;;;;;;;;;;;
2021/12/17 17:42:22;;;;;;;4.65;2.53;;;8.90;99.90;;;;;;6111970;23;20026;-92
2021/12/17 17:44:49;;;;;;;5.78;3.08;;;8.90;99.90;;;;;;6127282;23;20033;-92
2021/12/17 17:47:21;;;;;;;9.15;4.22;;;8.90;99.90;;;;;;6128278;23;20434;-91
2021/12/17 17:49:50;;;;;;;8.02;3.95;;;8.90;99.90;;;;;;6127213;23;20022;-93
2021/12/17 17:52:25;;;;;;;4.85;2.55;;;8.90;99.90;;;;;;6126965;23;20093;-93
2021/12/17 17:54:53;;;;;;;32.97;19.85;;;8.90;99.90;;;;;;6128843;23;20092;-92
2021/12/17 17:57:20;;;;;;;15.85;9.50;;;8.90;99.90;;;;;;6127355;23;20441;-92
2021/12/17 17:59:50;;;;;;;9.82;5.07;;;8.90;99.90;;;;;;6103444;23;20022;-92
2021/12/17 18:02:18;;;;;;;5.20;3.08;;;8.90;99.90;;;;;;6128376;23;20067;-92
2021/12/17 18:04:45;;;;;;;5.22;2.88;;;8.90;99.90;;;;;;6127535;23;20022;-92
2021/12/17 18:07:12;;;;;;;4.57;3.05;;;8.90;99.90;;;;;;6133719;23;20014;-92
2021/12/17 18:09:41;;;;;;;5.45;3.05;;;8.90;99.90;;;;;;6126601;23;20068;-92
2021/12/17 18:12:14;;;;;;;6.18;3.47;;;8.90;99.90;;;;;;6126906;23;20018;-94
2021/12/17 18:14:53;;;;;;;5.47;3.00;;;8.90;99.90;;;;;;6126967;23;20351;-92
2021/12/17 18:17:27;;;;;;;5.97;3.40;;;8.90;99.90;;;;;;6127001;23;20021;-94
2021/12/17 18:20:06;;;;;;;5.32;2.80;;;8.90;99.90;;;;;;6126698;23;20024;-92
2021/12/17 18:22:34;;;;;;;5.90;3.58;;;8.90;99.90;;;;;;6131110;23;20076;-92
2021/12/17 18:25:07;;;;;;;5.57;3.10;;;8.90;99.90;;;;;;6126503;23;20036;-92
2021/12/17 18:28:00;;;;;;;4.95;3.20;;;8.90;99.90;;;;;;6128828;23;20017;-94
2021/12/17 18:30:37;;;;;;;7.13;3.40;;;8.90;99.90;;;;;;6093137;23;20030;-94
2021/12/17 18:33:06;;;;;;;6.25;2.90;;;8.90;99.90;;;;;;6127110;23;20069;-92
2021/12/17 18:35:47;;;;;;;9.50;4.10;;;8.90;99.90;;;;;;6127162;23;20032;-93
2021/12/17 18:38:23;;;;;;;7.35;3.95;;;8.90;99.90;;;;;;6127281;23;20358;-94
2021/12/17 18:40:55;;;;;;;7.65;4.40;;;8.90;99.90;;;;;;6128073;23;20060;-94
2021/12/17 18:47:06;;;;;;;6.40;3.35;;;8.90;99.90;;;;;;6128760;23;20014;-92
2021/12/17 18:51:04;;;;;;;8.45;3.90;;;8.90;99.90;;;;;;6052673;23;20044;-95
2021/12/17 18:53:45;;;;;;;7.50;4.20;;;8.90;99.90;;;;;;6108113;23;20065;-93
2021/12/17 18:59:59;;;;;;;8.32;4.72;;;8.90;99.90;;;;;;6068668;23;20022;-92
2021/12/17 19:02:27;;;;;;;10.25;5.25;;;8.90;99.90;;;;;;6068159;23;20514;-93
2021/12/17 19:16:47;;;;;;;8.40;4.40;;;8.90;99.90;;;;;;6219629;23;20095;-91
2021/12/17 19:19:54;;;;;;;11.95;6.28;;;8.90;99.90;;;;;;6190638;23;20099;-93
2021/12/17 19:26:13;;;;;;;10.07;5.40;;;8.80;99.90;;;;;;6219187;23;20040;-94
2021/12/17 19:28:47;;;;;;;9.40;5.43;;;8.80;99.90;;;;;;6193222;23;20012;-91
2021/12/17 19:31:16;;;;;;;7.50;3.78;;;8.80;99.90;;;;;;6218405;23;20036;-90
2021/12/17 19:34:35;;;;;;;11.60;6.78;;;8.80;99.90;;;;;;6188257;23;20021;-91
2021/12/17 19:40:28;;;;;;;12.55;6.03;;;8.80;99.90;;;;;;6067727;23;20023;-92
2021/12/17 19:43:29;;;;;;;;;;;;;;;;;;;;;
2021/12/17 19:50:58;;;;;;;12.18;6.57;;;8.80;99.90;;;;;;6139551;22;20016;-91
2021/12/17 19:54:16;;;;;;;10.95;5.78;;;8.90;99.90;;;;;;6221772;23;20016;-95
2021/12/17 19:56:48;;;;;;;7.53;4.47;;;8.90;99.90;;;;;;6221805;23;20459;-90
2021/12/17 20:00:02;;;;;;;7.22;4.03;;;8.80;99.90;;;;;;6221712;23;20099;-95
2021/12/17 20:11:09;;;;;;;13.02;6.72;;;8.80;99.90;;;;;;6218402;23;20107;-94
2021/12/17 20:14:11;;;;;;;11.90;6.28;;;8.80;99.90;;;;;;6192351;23;20380;-94
2021/12/17 20:17:17;;;;;;;11.07;5.93;;;8.80;99.90;;;;;;6199949;23;20529;-92
2021/12/17 20:23:28;;;;;;;15.18;8.68;;;8.80;99.90;;;;;;6160455;23;20076;-93
2021/12/17 20:30:09;;;;;;;10.00;6.03;;;8.80;99.90;;;;;;6123249;23;20022;-93
2021/12/17 20:32:57;;;;;;;8.25;5.43;;;8.80;99.90;;;;;;6131283;23;20441;-95
2021/12/17 20:43:03;;;;;;;11.73;7.20;;;8.80;99.90;;;;;;6217056;23;20070;-92
2021/12/17 20:45:42;;;;;;;10.80;6.80;;;8.80;99.90;;;;;;6190182;23;20029;-92
2021/12/17 20:56:50;;;;;;;17.30;6.95;;;8.80;99.90;;;;;;6220296;23;20012;-94
2021/12/17 21:17:00;;;;;;;;;;;;;;;;;;;;;
2021/12/17 21:29:26;;;;;;;11.27;5.40;;;8.80;99.90;;;;;;6014028;23;20011;-94
2021/12/17 21:36:46;;;;;;;12.27;5.38;;;8.70;99.90;;;;;;6011315;23;20072;-96
2021/12/17 22:05:58;;;;;;;9.93;5.22;;;8.70;99.90;;;;;;6244206;22;20031;-94
2021/12/17 22:19:26;;;;;;;6.82;4.32;;;8.60;99.90;;;;;;6217941;23;20031;-93
2021/12/17 22:22:00;;;;;;;8.60;3.25;;;8.70;99.90;;;;;;6190964;23;20027;-92
2021/12/17 22:24:28;;;;;;;6.55;3.95;;;8.70;99.90;;;;;;6218474;23;20016;-90
2021/12/17 22:26:55;;;;;;;8.30;3.92;;;8.70;99.90;;;;;;6167008;23;20017;-91
2021/12/17 22:29:22;;;;;;;7.88;3.88;;;8.70;99.90;;;;;;6191588;23;20021;-91
2021/12/17 22:31:50;;;;;;;8.15;3.88;;;8.70;99.90;;;;;;6191437;23;20113;-91
2021/12/17 22:34:19;;;;;;;9.65;5.00;;;8.70;99.90;;;;;;6166873;23;20104;-91
2021/12/17 22:36:47;;;;;;;7.43;4.00;;;8.70;99.90;;;;;;6190712;23;20022;-92
2021/12/17 22:39:14;;;;;;;6.75;3.67;;;8.70;99.90;;;;;;6166990;23;20016;-92
2021/12/17 22:41:43;;;;;;;7.25;3.47;;;8.70;99.90;;;;;;6191435;23;20063;-91
2021/12/17 22:44:13;;;;;;;7.07;3.20;;;8.70;99.90;;;;;;6190850;23;20405;-92
2021/12/17 22:46:44;;;;;;;8.70;3.97;;;8.70;99.90;;;;;;6166385;23;20444;-91
2021/12/17 22:49:11;;;;;;;6.82;3.33;;;8.70;99.90;;;;;;6166741;23;20024;-92
2021/12/17 22:51:39;;;;;;;6.43;3.65;;;8.70;99.90;;;;;;6190792;23;20021;-93
2021/12/17 22:54:07;;;;;;;5.55;3.35;;;8.70;99.90;;;;;;6192171;23;20455;-92
2021/12/17 22:56:36;;;;;;;4.88;2.60;;;8.70;99.90;;;;;;6217868;23;20017;-91
2021/12/17 22:59:04;;;;;;;7.68;3.40;;;8.60;99.90;;;;;;6166999;23;20013;-92
2021/12/17 23:01:35;;;;;;;6.88;3.63;;;8.60;99.90;;;;;;6167260;23;20032;-92
2021/12/17 23:04:14;;;;;;;6.05;3.42;;;8.60;99.90;;;;;;6166230;23;20025;-92
2021/12/17 23:06:45;;;;;;;8.65;3.30;;;8.70;99.90;;;;;;6166467;23;20021;-92
2021/12/17 23:09:24;;;;;;;10.13;4.13;;;8.60;99.90;;;;;;6166908;23;20108;-92
2021/12/17 23:11:51;;;;;;;4.30;1.90;;;8.50;99.90;;;;;;6166010;23;20021;-91
2021/12/17 23:14:22;;;;;;;6.53;3.05;;;8.50;99.90;;;;;;6166443;23;20294;-93
2021/12/17 23:16:50;;;;;;;5.00;2.55;;;8.50;99.90;;;;;;6166514;23;20024;-92
2021/12/17 23:19:18;;;;;;;4.55;2.85;;;8.60;99.90;;;;;;6166699;23;20021;-92
2021/12/17 23:21:45;;;;;;;6.15;2.80;;;8.60;99.90;;;;;;6217518;23;20110;-92
2021/12/17 23:24:12;;;;;;;6.95;3.13;;;8.50;99.90;;;;;;6165790;23;20055;-93
2021/12/17 23:26:40;;;;;;;6.85;2.47;;;8.50;99.90;;;;;;6190313;23;20021;-92
2021/12/17 23:29:09;;;;;;;4.90;2.35;;;8.60;99.90;;;;;;6166801;23;20017;-92
2021/12/17 23:31:38;;;;;;;5.50;2.78;;;8.50;99.90;;;;;;6165769;23;20022;-91
2021/12/17 23:34:11;;;;;;;6.90;2.58;;;8.60;99.90;;;;;;6191496;23;20496;-92
2021/12/17 23:36:41;;;;;;;5.47;2.33;;;8.40;99.90;;;;;;6192058;23;20012;-92
2021/12/17 23:39:11;;;;;;;5.30;2.55;;;8.40;99.90;;;;;;6166782;23;20102;-92
2021/12/17 23:41:38;;;;;;;5.53;2.72;;;8.30;99.90;;;;;;6166151;23;20441;-92
2021/12/17 23:44:07;;;;;;;4.47;2.67;;;8.30;99.90;;;;;;6165774;23;20507;-91
2021/12/17 23:46:35;;;;;;;6.38;2.67;;;8.30;99.90;;;;;;6190973;23;20082;-92
2021/12/17 23:49:04;;;;;;;4.35;2.55;;;8.30;99.90;;;;;;6167184;23;20017;-93
2021/12/17 23:51:32;;;;;;;10.18;2.70;;;8.40;99.90;;;;;;6192881;23;20019;-92
2021/12/17 23:54:00;;;;;;;6.47;2.58;;;8.20;99.90;;;;;;6167555;23;20463;-92
2021/12/17 23:56:28;;;;;;;7.88;2.35;;;8.20;99.90;;;;;;6167717;23;20021;-92
2021/12/17 23:58:57;;;;;;;6.60;2.42;;;8.10;99.90;;;;;;6193368;23;20012;-92
